sensor_id;sensor_type;location;lat;lon;timestamp;temperature;humidity
4097;DHT22;2062;50.694;7.246;2023-06-14T00:01:18;19.90;26.30
4097;DHT22;2062;50.694;7.246;2023-06-14T00:03:45;19.90;26.40
4097;DHT22;2062;50.694;7.246;2023-06-14T00:06:12;19.90;26.30
4097;DHT22;2062;50.694;7.246;2023-06-14T00:08:39;19.90;26.30
4097;DHT22;2062;50.694;7.246;2023-06-14T00:11:08;19.90;26.40
4097;DHT22;2062;50.694;7.246;2023-06-14T00:13:35;19.90;26.40
4097;DHT22;2062;50.694;7.246;2023-06-14T00:16:02;19.90;26.40
4097;DHT22;2062;50.694;7.246;2023-06-14T00:18:29;19.90;26.50
4097;DHT22;2062;50.694;7.246;2023-06-14T00:20:56;19.80;26.40
4097;DHT22;2062;50.694;7.246;2023-06-14T00:23:23;19.80;26.40
4097;DHT22;2062;50.694;7.246;2023-06-14T00:25:50;19.80;26.40
4097;DHT22;2062;50.694;7.246;2023-06-14T00:28:18;19.80;26.40
4097;DHT22;2062;50.694;7.246;2023-06-14T00:30:44;19.80;26.50
4097;DHT22;2062;50.694;7.246;2023-06-14T00:33:12;19.80;26.50
4097;DHT22;2062;50.694;7.246;2023-06-14T00:35:39;19.80;26.60
4097;DHT22;2062;50.694;7.246;2023-06-14T00:38:05;19.70;26.60
4097;DHT22;2062;50.694;7.246;2023-06-14T00:40:32;19.70;26.60
4097;DHT22;2062;50.694;7.246;2023-06-14T00:43:00;19.70;26.90
4097;DHT22;2062;50.694;7.246;2023-06-14T00:45:28;19.70;27.00
4097;DHT22;2062;50.694;7.246;2023-06-14T00:47:57;19.70;26.90
4097;DHT22;2062;50.694;7.246;2023-06-14T00:50:24;19.70;27.50
4097;DHT22;2062;50.694;7.246;2023-06-14T00:52:51;19.60;26.80
4097;DHT22;2062;50.694;7.246;2023-06-14T00:55:18;19.60;26.90
4097;DHT22;2062;50.694;7.246;2023-06-14T00:57:45;19.60;27.00
4097;DHT22;2062;50.694;7.246;2023-06-14T01:00:13;19.60;26.80
4097;DHT22;2062;50.694;7.246;2023-06-14T01:02:41;19.60;27.00
4097;DHT22;2062;50.694;7.246;2023-06-14T01:05:09;19.50;26.90
4097;DHT22;2062;50.694;7.246;2023-06-14T01:07:46;19.50;26.90
4097;DHT22;2062;50.694;7.246;2023-06-14T01:10:30;19.50;27.20
4097;DHT22;2062;50.694;7.246;2023-06-14T01:13:04;19.50;27.20
4097;DHT22;2062;50.694;7.246;2023-06-14T01:15:31;19.40;26.90
4097;DHT22;2062;50.694;7.246;2023-06-14T01:18:00;19.40;27.10
4097;DHT22;2062;50.694;7.246;2023-06-14T01:20:30;19.40;27.10
4097;DHT22;2062;50.694;7.246;2023-06-14T01:22:59;19.40;27.10
4097;DHT22;2062;50.694;7.246;2023-06-14T01:25:26;19.30;27.20
4097;DHT22;2062;50.694;7.246;2023-06-14T01:27:56;19.30;27.10
4097;DHT22;2062;50.694;7.246;2023-06-14T01:30:24;19.30;27.40
4097;DHT22;2062;50.694;7.246;2023-06-14T01:32:53;19.20;27.40
4097;DHT22;2062;50.694;7.246;2023-06-14T01:35:21;19.20;27.50
4097;DHT22;2062;50.694;7.246;2023-06-14T01:37:48;19.20;27.70
4097;DHT22;2062;50.694;7.246;2023-06-14T01:40:18;19.10;27.70
4097;DHT22;2062;50.694;7.246;2023-06-14T01:42:46;19.10;27.70
4097;DHT22;2062;50.694;7.246;2023-06-14T01:45:14;19.10;27.80
4097;DHT22;2062;50.694;7.246;2023-06-14T01:47:42;19.10;27.40
4097;DHT22;2062;50.694;7.246;2023-06-14T01:50:10;19.00;27.60
4097;DHT22;2062;50.694;7.246;2023-06-14T01:52:37;19.00;27.50
4097;DHT22;2062;50.694;7.246;2023-06-14T01:55:13;19.00;27.80
4097;DHT22;2062;50.694;7.246;2023-06-14T01:57:44;18.90;28.10
4097;DHT22;2062;50.694;7.246;2023-06-14T02:00:12;18.90;27.70
4097;DHT22;2062;50.694;7.246;2023-06-14T02:02:40;18.90;27.70
4097;DHT22;2062;50.694;7.246;2023-06-14T02:05:07;19.00;27.90
4097;DHT22;2062;50.694;7.246;2023-06-14T02:07:34;18.80;27.60
4097;DHT22;2062;50.694;7.246;2023-06-14T02:10:01;18.80;27.70
4097;DHT22;2062;50.694;7.246;2023-06-14T02:12:28;18.70;27.60
4097;DHT22;2062;50.694;7.246;2023-06-14T02:14:56;18.70;27.70
4097;DHT22;2062;50.694;7.246;2023-06-14T02:17:24;18.70;28.00
4097;DHT22;2062;50.694;7.246;2023-06-14T02:19:51;18.60;27.70
4097;DHT22;2062;50.694;7.246;2023-06-14T02:22:18;18.60;27.60
4097;DHT22;2062;50.694;7.246;2023-06-14T02:24:47;18.60;27.70
4097;DHT22;2062;50.694;7.246;2023-06-14T02:27:14;18.60;27.60
4097;DHT22;2062;50.694;7.246;2023-06-14T02:29:41;18.70;27.90
4097;DHT22;2062;50.694;7.246;2023-06-14T02:32:09;18.50;28.10
4097;DHT22;2062;50.694;7.246;2023-06-14T02:34:36;18.50;28.00
4097;DHT22;2062;50.694;7.246;2023-06-14T02:37:06;18.50;28.00
4097;DHT22;2062;50.694;7.246;2023-06-14T02:39:33;18.30;28.00
4097;DHT22;2062;50.694;7.246;2023-06-14T02:42:00;18.40;28.10
4097;DHT22;2062;50.694;7.246;2023-06-14T02:44:27;18.40;28.20
4097;DHT22;2062;50.694;7.246;2023-06-14T02:46:54;18.30;28.20
4097;DHT22;2062;50.694;7.246;2023-06-14T02:49:22;18.30;28.30
4097;DHT22;2062;50.694;7.246;2023-06-14T02:51:49;18.20;28.20
4097;DHT22;2062;50.694;7.246;2023-06-14T02:54:16;18.30;28.60
4097;DHT22;2062;50.694;7.246;2023-06-14T02:56:43;18.20;28.20
4097;DHT22;2062;50.694;7.246;2023-06-14T02:59:09;18.20;28.30
4097;DHT22;2062;50.694;7.246;2023-06-14T03:01:36;18.20;28.50
4097;DHT22;2062;50.694;7.246;2023-06-14T03:04:06;18.20;28.60
4097;DHT22;2062;50.694;7.246;2023-06-14T03:06:35;18.10;28.80
4097;DHT22;2062;50.694;7.246;2023-06-14T03:09:02;18.10;28.70
4097;DHT22;2062;50.694;7.246;2023-06-14T03:11:31;18.10;28.70
4097;DHT22;2062;50.694;7.246;2023-06-14T03:13:59;18.10;28.80
4097;DHT22;2062;50.694;7.246;2023-06-14T03:16:26;18.10;28.60
4097;DHT22;2062;50.694;7.246;2023-06-14T03:18:55;18.00;28.50
4097;DHT22;2062;50.694;7.246;2023-06-14T03:21:22;18.00;28.70
4097;DHT22;2062;50.694;7.246;2023-06-14T03:23:51;18.00;28.70
4097;DHT22;2062;50.694;7.246;2023-06-14T03:26:19;18.00;28.70
4097;DHT22;2062;50.694;7.246;2023-06-14T03:28:47;17.90;28.60
4097;DHT22;2062;50.694;7.246;2023-06-14T03:31:13;17.90;28.60
4097;DHT22;2062;50.694;7.246;2023-06-14T03:33:40;17.90;28.60
4097;DHT22;2062;50.694;7.246;2023-06-14T03:36:07;17.90;28.80
4097;DHT22;2062;50.694;7.246;2023-06-14T03:38:34;17.80;29.00
4097;DHT22;2062;50.694;7.246;2023-06-14T03:41:02;17.80;29.10
4097;DHT22;2062;50.694;7.246;2023-06-14T03:43:29;17.80;29.20
4097;DHT22;2062;50.694;7.246;2023-06-14T03:45:56;17.80;29.20
4097;DHT22;2062;50.694;7.246;2023-06-14T03:48:23;17.80;29.40
4097;DHT22;2062;50.694;7.246;2023-06-14T03:50:50;17.80;29.40
4097;DHT22;2062;50.694;7.246;2023-06-14T03:53:17;17.70;29.40
4097;DHT22;2062;50.694;7.246;2023-06-14T03:55:45;17.70;29.30
4097;DHT22;2062;50.694;7.246;2023-06-14T03:58:15;17.70;29.10
4097;DHT22;2062;50.694;7.246;2023-06-14T04:00:42;17.60;29.00
4097;DHT22;2062;50.694;7.246;2023-06-14T04:03:08;17.60;29.00
4097;DHT22;2062;50.694;7.246;2023-06-14T04:05:35;17.60;29.00
4097;DHT22;2062;50.694;7.246;2023-06-14T04:08:02;17.60;29.10
4097;DHT22;2062;50.694;7.246;2023-06-14T04:10:30;17.60;29.00
4097;DHT22;2062;50.694;7.246;2023-06-14T04:12:56;17.60;29.00
4097;DHT22;2062;50.694;7.246;2023-06-14T04:15:24;17.60;29.10
4097;DHT22;2062;50.694;7.246;2023-06-14T04:17:53;17.60;29.10
4097;DHT22;2062;50.694;7.246;2023-06-14T04:20:22;17.60;29.20
4097;DHT22;2062;50.694;7.246;2023-06-14T04:22:50;17.60;29.20
4097;DHT22;2062;50.694;7.246;2023-06-14T04:25:18;17.70;29.30
4097;DHT22;2062;50.694;7.246;2023-06-14T04:27:46;17.60;29.40
4097;DHT22;2062;50.694;7.246;2023-06-14T04:30:13;17.70;29.50
4097;DHT22;2062;50.694;7.246;2023-06-14T04:32:41;17.60;29.50
4097;DHT22;2062;50.694;7.246;2023-06-14T04:35:08;17.70;29.50
4097;DHT22;2062;50.694;7.246;2023-06-14T04:37:36;17.70;29.50
4097;DHT22;2062;50.694;7.246;2023-06-14T04:40:06;17.70;29.60
4097;DHT22;2062;50.694;7.246;2023-06-14T04:42:33;17.70;29.70
4097;DHT22;2062;50.694;7.246;2023-06-14T04:45:02;17.70;29.80
4097;DHT22;2062;50.694;7.246;2023-06-14T04:47:29;17.70;29.70
4097;DHT22;2062;50.694;7.246;2023-06-14T04:49:59;17.70;30.00
4097;DHT22;2062;50.694;7.246;2023-06-14T04:52:26;17.70;30.50
4097;DHT22;2062;50.694;7.246;2023-06-14T04:54:55;17.70;30.10
4097;DHT22;2062;50.694;7.246;2023-06-14T04:57:22;17.70;30.30
4097;DHT22;2062;50.694;7.246;2023-06-14T04:59:51;17.70;30.50
4097;DHT22;2062;50.694;7.246;2023-06-14T05:02:20;17.70;30.20
4097;DHT22;2062;50.694;7.246;2023-06-14T05:04:47;17.70;30.30
4097;DHT22;2062;50.694;7.246;2023-06-14T05:07:15;17.80;30.20
4097;DHT22;2062;50.694;7.246;2023-06-14T05:09:42;17.80;30.60
4097;DHT22;2062;50.694;7.246;2023-06-14T05:12:09;17.80;30.50
4097;DHT22;2062;50.694;7.246;2023-06-14T05:14:36;17.80;31.00
4097;DHT22;2062;50.694;7.246;2023-06-14T05:17:03;17.80;31.10
4097;DHT22;2062;50.694;7.246;2023-06-14T05:19:30;17.80;30.90
4097;DHT22;2062;50.694;7.246;2023-06-14T05:21:57;17.80;30.80
4097;DHT22;2062;50.694;7.246;2023-06-14T05:24:25;17.80;31.00
4097;DHT22;2062;50.694;7.246;2023-06-14T05:26:52;17.80;30.90
4097;DHT22;2062;50.694;7.246;2023-06-14T05:29:19;17.80;31.30
4097;DHT22;2062;50.694;7.246;2023-06-14T05:31:45;17.90;31.60
4097;DHT22;2062;50.694;7.246;2023-06-14T05:34:12;17.90;31.60
4097;DHT22;2062;50.694;7.246;2023-06-14T05:36:39;17.90;32.00
4097;DHT22;2062;50.694;7.246;2023-06-14T05:39:06;18.00;32.10
4097;DHT22;2062;50.694;7.246;2023-06-14T05:41:35;18.00;32.30
4097;DHT22;2062;50.694;7.246;2023-06-14T05:44:02;18.20;32.50
4097;DHT22;2062;50.694;7.246;2023-06-14T05:46:28;18.30;33.00
4097;DHT22;2062;50.694;7.246;2023-06-14T05:48:55;18.40;32.70
4097;DHT22;2062;50.694;7.246;2023-06-14T05:51:23;18.60;33.30
4097;DHT22;2062;50.694;7.246;2023-06-14T05:53:52;18.70;33.20
4097;DHT22;2062;50.694;7.246;2023-06-14T05:56:19;18.90;33.70
4097;DHT22;2062;50.694;7.246;2023-06-14T05:58:47;19.10;33.50
4097;DHT22;2062;50.694;7.246;2023-06-14T06:01:15;19.30;33.00
4097;DHT22;2062;50.694;7.246;2023-06-14T06:03:42;19.50;33.10
4097;DHT22;2062;50.694;7.246;2023-06-14T06:06:11;19.70;32.80
4097;DHT22;2062;50.694;7.246;2023-06-14T06:08:38;19.80;32.60
4097;DHT22;2062;50.694;7.246;2023-06-14T06:11:04;20.00;32.40
4097;DHT22;2062;50.694;7.246;2023-06-14T06:13:31;20.20;32.60
4097;DHT22;2062;50.694;7.246;2023-06-14T06:15:59;20.40;32.30
4097;DHT22;2062;50.694;7.246;2023-06-14T06:18:26;20.60;32.20
4097;DHT22;2062;50.694;7.246;2023-06-14T06:20:53;20.70;32.10
4097;DHT22;2062;50.694;7.246;2023-06-14T06:23:21;20.90;31.40
4097;DHT22;2062;50.694;7.246;2023-06-14T06:25:47;21.10;31.70
4097;DHT22;2062;50.694;7.246;2023-06-14T06:28:14;21.20;31.20
4097;DHT22;2062;50.694;7.246;2023-06-14T06:30:41;21.40;31.30
4097;DHT22;2062;50.694;7.246;2023-06-14T06:33:09;21.60;31.30
4097;DHT22;2062;50.694;7.246;2023-06-14T06:35:37;21.70;31.00
4097;DHT22;2062;50.694;7.246;2023-06-14T06:38:04;21.90;31.00
4097;DHT22;2062;50.694;7.246;2023-06-14T06:40:31;22.00;30.80
4097;DHT22;2062;50.694;7.246;2023-06-14T06:42:57;22.20;30.20
4097;DHT22;2062;50.694;7.246;2023-06-14T06:45:24;22.40;29.50
4097;DHT22;2062;50.694;7.246;2023-06-14T06:47:51;22.50;29.30
4097;DHT22;2062;50.694;7.246;2023-06-14T06:50:19;22.60;29.00
4097;DHT22;2062;50.694;7.246;2023-06-14T06:52:48;22.80;29.10
4097;DHT22;2062;50.694;7.246;2023-06-14T06:55:15;22.90;28.80
4097;DHT22;2062;50.694;7.246;2023-06-14T06:57:43;22.90;28.70
4097;DHT22;2062;50.694;7.246;2023-06-14T07:00:11;23.10;28.40
4097;DHT22;2062;50.694;7.246;2023-06-14T07:02:38;23.20;28.20
4097;DHT22;2062;50.694;7.246;2023-06-14T07:05:05;23.40;28.10
4097;DHT22;2062;50.694;7.246;2023-06-14T07:07:34;23.50;28.50
4097;DHT22;2062;50.694;7.246;2023-06-14T07:10:01;23.60;27.90
4097;DHT22;2062;50.694;7.246;2023-06-14T07:12:30;23.70;28.20
4097;DHT22;2062;50.694;7.246;2023-06-14T07:14:59;23.90;27.90
4097;DHT22;2062;50.694;7.246;2023-06-14T07:17:26;24.00;27.80
4097;DHT22;2062;50.694;7.246;2023-06-14T07:19:53;24.20;27.90
4097;DHT22;2062;50.694;7.246;2023-06-14T07:22:19;24.30;27.50
4097;DHT22;2062;50.694;7.246;2023-06-14T07:24:47;24.50;27.30
4097;DHT22;2062;50.694;7.246;2023-06-14T07:27:14;24.60;27.10
4097;DHT22;2062;50.694;7.246;2023-06-14T07:29:41;24.80;27.40
4097;DHT22;2062;50.694;7.246;2023-06-14T07:32:08;24.90;26.70
4097;DHT22;2062;50.694;7.246;2023-06-14T07:34:35;25.00;26.30
4097;DHT22;2062;50.694;7.246;2023-06-14T07:37:01;25.20;26.00
4097;DHT22;2062;50.694;7.246;2023-06-14T07:39:28;25.30;25.70
4097;DHT22;2062;50.694;7.246;2023-06-14T07:41:56;25.40;25.90
4097;DHT22;2062;50.694;7.246;2023-06-14T07:44:23;25.50;25.50
4097;DHT22;2062;50.694;7.246;2023-06-14T07:46:50;25.60;24.90
4097;DHT22;2062;50.694;7.246;2023-06-14T07:49:16;25.70;24.20
4097;DHT22;2062;50.694;7.246;2023-06-14T07:51:43;25.80;25.00
4097;DHT22;2062;50.694;7.246;2023-06-14T07:54:11;25.90;24.50
4097;DHT22;2062;50.694;7.246;2023-06-14T07:56:38;26.00;24.10
4097;DHT22;2062;50.694;7.246;2023-06-14T07:59:06;26.20;24.60
4097;DHT22;2062;50.694;7.246;2023-06-14T08:01:34;26.30;24.20
4097;DHT22;2062;50.694;7.246;2023-06-14T08:04:01;26.40;24.40
4097;DHT22;2062;50.694;7.246;2023-06-14T08:06:28;26.50;23.70
4097;DHT22;2062;50.694;7.246;2023-06-14T08:08:56;26.60;23.30
4097;DHT22;2062;50.694;7.246;2023-06-14T08:11:22;26.70;23.10
4097;DHT22;2062;50.694;7.246;2023-06-14T08:13:50;26.90;23.50
4097;DHT22;2062;50.694;7.246;2023-06-14T08:16:18;27.00;24.00
4097;DHT22;2062;50.694;7.246;2023-06-14T08:18:45;27.10;23.10
4097;DHT22;2062;50.694;7.246;2023-06-14T08:21:12;27.20;23.50
4097;DHT22;2062;50.694;7.246;2023-06-14T08:23:40;27.30;23.40
4097;DHT22;2062;50.694;7.246;2023-06-14T08:26:08;27.40;22.90
4097;DHT22;2062;50.694;7.246;2023-06-14T08:28:35;27.60;22.80
4097;DHT22;2062;50.694;7.246;2023-06-14T08:31:01;27.60;22.30
4097;DHT22;2062;50.694;7.246;2023-06-14T08:33:30;27.80;21.60
4097;DHT22;2062;50.694;7.246;2023-06-14T08:35:58;27.90;21.20
4097;DHT22;2062;50.694;7.246;2023-06-14T08:38:25;28.00;21.50
4097;DHT22;2062;50.694;7.246;2023-06-14T08:40:52;28.10;21.10
4097;DHT22;2062;50.694;7.246;2023-06-14T08:43:23;28.10;20.60
4097;DHT22;2062;50.694;7.246;2023-06-14T08:45:53;28.20;20.30
4097;DHT22;2062;50.694;7.246;2023-06-14T08:48:22;28.30;20.70
4097;DHT22;2062;50.694;7.246;2023-06-14T08:50:54;28.40;20.40
4097;DHT22;2062;50.694;7.246;2023-06-14T08:53:28;28.50;20.80
4097;DHT22;2062;50.694;7.246;2023-06-14T08:55:57;28.60;21.00
4097;DHT22;2062;50.694;7.246;2023-06-14T08:58:25;28.70;20.30
4097;DHT22;2062;50.694;7.246;2023-06-14T09:00:55;28.70;19.80
4097;DHT22;2062;50.694;7.246;2023-06-14T09:03:22;28.90;19.40
4097;DHT22;2062;50.694;7.246;2023-06-14T09:05:56;28.90;19.40
4097;DHT22;2062;50.694;7.246;2023-06-14T09:08:24;29.00;19.70
4097;DHT22;2062;50.694;7.246;2023-06-14T09:10:51;29.10;19.70
4097;DHT22;2062;50.694;7.246;2023-06-14T09:13:18;29.20;19.40
4097;DHT22;2062;50.694;7.246;2023-06-14T09:15:45;29.30;19.60
4097;DHT22;2062;50.694;7.246;2023-06-14T09:18:11;29.40;19.10
4097;DHT22;2062;50.694;7.246;2023-06-14T09:20:38;29.50;19.20
4097;DHT22;2062;50.694;7.246;2023-06-14T09:23:07;29.50;19.40
4097;DHT22;2062;50.694;7.246;2023-06-14T09:25:42;29.60;19.20
4097;DHT22;2062;50.694;7.246;2023-06-14T09:28:09;29.80;19.10
4097;DHT22;2062;50.694;7.246;2023-06-14T09:30:37;29.80;18.60
4097;DHT22;2062;50.694;7.246;2023-06-14T09:33:03;29.90;18.90
4097;DHT22;2062;50.694;7.246;2023-06-14T09:35:31;29.90;18.70
4097;DHT22;2062;50.694;7.246;2023-06-14T09:37:58;30.10;19.00
4097;DHT22;2062;50.694;7.246;2023-06-14T09:40:27;30.10;18.50
4097;DHT22;2062;50.694;7.246;2023-06-14T09:42:54;30.20;18.70
4097;DHT22;2062;50.694;7.246;2023-06-14T09:45:23;30.20;19.00
4097;DHT22;2062;50.694;7.246;2023-06-14T09:47:51;30.30;19.00
4097;DHT22;2062;50.694;7.246;2023-06-14T09:50:18;30.40;18.40
4097;DHT22;2062;50.694;7.246;2023-06-14T09:52:46;30.40;18.20
4097;DHT22;2062;50.694;7.246;2023-06-14T09:55:13;30.40;18.50
4097;DHT22;2062;50.694;7.246;2023-06-14T09:57:45;30.50;18.60
4097;DHT22;2062;50.694;7.246;2023-06-14T10:00:14;30.50;18.30
4097;DHT22;2062;50.694;7.246;2023-06-14T10:02:47;30.60;18.20
4097;DHT22;2062;50.694;7.246;2023-06-14T10:05:17;30.60;18.50
4097;DHT22;2062;50.694;7.246;2023-06-14T10:07:51;30.70;18.10
4097;DHT22;2062;50.694;7.246;2023-06-14T10:10:19;30.70;17.90
4097;DHT22;2062;50.694;7.246;2023-06-14T10:12:48;30.70;18.00
4097;DHT22;2062;50.694;7.246;2023-06-14T10:15:19;30.70;17.70
4097;DHT22;2062;50.694;7.246;2023-06-14T10:17:50;30.70;17.90
4097;DHT22;2062;50.694;7.246;2023-06-14T10:20:26;30.80;18.20
4097;DHT22;2062;50.694;7.246;2023-06-14T10:22:58;30.80;18.40
4097;DHT22;2062;50.694;7.246;2023-06-14T10:25:26;30.90;17.80
4097;DHT22;2062;50.694;7.246;2023-06-14T10:28:02;30.90;17.00
4097;DHT22;2062;50.694;7.246;2023-06-14T10:30:29;30.90;17.60
4097;DHT22;2062;50.694;7.246;2023-06-14T10:33:05;30.90;18.20
4097;DHT22;2062;50.694;7.246;2023-06-14T10:35:33;31.00;18.70
4097;DHT22;2062;50.694;7.246;2023-06-14T10:38:09;31.10;18.70
4097;DHT22;2062;50.694;7.246;2023-06-14T10:40:36;31.10;18.50
4097;DHT22;2062;50.694;7.246;2023-06-14T10:43:22;31.20;18.80
4097;DHT22;2062;50.694;7.246;2023-06-14T10:46:14;31.30;18.90
4097;DHT22;2062;50.694;7.246;2023-06-14T10:48:41;31.30;18.70
4097;DHT22;2062;50.694;7.246;2023-06-14T10:51:16;31.40;18.70
4097;DHT22;2062;50.694;7.246;2023-06-14T10:53:45;31.50;19.00
4097;DHT22;2062;50.694;7.246;2023-06-14T10:56:23;31.50;18.70
4097;DHT22;2062;50.694;7.246;2023-06-14T10:58:53;31.60;18.70
4097;DHT22;2062;50.694;7.246;2023-06-14T11:01:31;31.60;18.70
4097;DHT22;2062;50.694;7.246;2023-06-14T11:04:07;31.70;18.50
4097;DHT22;2062;50.694;7.246;2023-06-14T11:06:47;31.70;18.20
4097;DHT22;2062;50.694;7.246;2023-06-14T11:12:10;31.80;18.50
4097;DHT22;2062;50.694;7.246;2023-06-14T11:14:38;31.80;18.20
4097;DHT22;2062;50.694;7.246;2023-06-14T11:17:05;31.90;18.20
4097;DHT22;2062;50.694;7.246;2023-06-14T11:19:33;31.90;18.00
4097;DHT22;2062;50.694;7.246;2023-06-14T11:21:59;31.90;18.10
4097;DHT22;2062;50.694;7.246;2023-06-14T11:24:26;31.90;17.50
4097;DHT22;2062;50.694;7.246;2023-06-14T11:26:53;31.90;17.80
4097;DHT22;2062;50.694;7.246;2023-06-14T11:29:22;31.90;17.60
4097;DHT22;2062;50.694;7.246;2023-06-14T11:31:50;31.90;17.70
4097;DHT22;2062;50.694;7.246;2023-06-14T11:34:17;31.90;17.50
4097;DHT22;2062;50.694;7.246;2023-06-14T11:36:45;31.90;16.40
4097;DHT22;2062;50.694;7.246;2023-06-14T11:39:13;31.80;16.70
4097;DHT22;2062;50.694;7.246;2023-06-14T11:41:41;31.80;17.00
4097;DHT22;2062;50.694;7.246;2023-06-14T11:44:09;31.80;17.20
4097;DHT22;2062;50.694;7.246;2023-06-14T11:46:37;31.80;17.50
4097;DHT22;2062;50.694;7.246;2023-06-14T11:49:07;31.80;17.20
4097;DHT22;2062;50.694;7.246;2023-06-14T11:51:35;31.90;17.30
4097;DHT22;2062;50.694;7.246;2023-06-14T11:54:03;31.90;17.40
4097;DHT22;2062;50.694;7.246;2023-06-14T11:56:30;32.00;17.70
4097;DHT22;2062;50.694;7.246;2023-06-14T11:58:58;32.00;17.60
4097;DHT22;2062;50.694;7.246;2023-06-14T12:01:24;32.00;17.50
4097;DHT22;2062;50.694;7.246;2023-06-14T12:03:53;32.00;17.20
4097;DHT22;2062;50.694;7.246;2023-06-14T12:06:27;32.00;17.10
4097;DHT22;2062;50.694;7.246;2023-06-14T12:09:03;32.10;16.90
4097;DHT22;2062;50.694;7.246;2023-06-14T12:11:33;32.10;16.70
4097;DHT22;2062;50.694;7.246;2023-06-14T12:14:03;32.10;16.70
4097;DHT22;2062;50.694;7.246;2023-06-14T12:16:31;32.10;16.80
4097;DHT22;2062;50.694;7.246;2023-06-14T12:19:00;32.10;16.50
4097;DHT22;2062;50.694;7.246;2023-06-14T12:21:29;32.10;16.30
4097;DHT22;2062;50.694;7.246;2023-06-14T12:23:58;32.10;16.90
4097;DHT22;2062;50.694;7.246;2023-06-14T12:26:25;32.10;17.10
4097;DHT22;2062;50.694;7.246;2023-06-14T12:28:53;32.20;17.30
4097;DHT22;2062;50.694;7.246;2023-06-14T12:31:20;32.20;17.40
4097;DHT22;2062;50.694;7.246;2023-06-14T12:33:47;32.20;17.50
4097;DHT22;2062;50.694;7.246;2023-06-14T12:36:16;32.30;17.40
4097;DHT22;2062;50.694;7.246;2023-06-14T12:38:44;32.40;17.50
4097;DHT22;2062;50.694;7.246;2023-06-14T12:41:12;32.40;17.40
4097;DHT22;2062;50.694;7.246;2023-06-14T12:43:40;32.50;17.40
4097;DHT22;2062;50.694;7.246;2023-06-14T12:46:07;32.50;17.20
4097;DHT22;2062;50.694;7.246;2023-06-14T12:48:33;32.50;17.50
4097;DHT22;2062;50.694;7.246;2023-06-14T12:51:00;32.50;17.70
4097;DHT22;2062;50.694;7.246;2023-06-14T12:53:27;32.60;17.10
4097;DHT22;2062;50.694;7.246;2023-06-14T12:55:55;32.60;17.10
4097;DHT22;2062;50.694;7.246;2023-06-14T12:58:22;32.60;17.30
4097;DHT22;2062;50.694;7.246;2023-06-14T13:00:49;32.60;17.60
4097;DHT22;2062;50.694;7.246;2023-06-14T13:03:16;32.70;17.00
4097;DHT22;2062;50.694;7.246;2023-06-14T13:05:42;32.60;17.00
4097;DHT22;2062;50.694;7.246;2023-06-14T13:08:09;32.70;17.20
4097;DHT22;2062;50.694;7.246;2023-06-14T13:10:36;32.60;17.00
4097;DHT22;2062;50.694;7.246;2023-06-14T13:13:05;32.70;16.90
4097;DHT22;2062;50.694;7.246;2023-06-14T13:15:33;32.60;16.60
4097;DHT22;2062;50.694;7.246;2023-06-14T13:18:00;32.60;16.50
4097;DHT22;2062;50.694;7.246;2023-06-14T13:20:28;32.60;16.50
4097;DHT22;2062;50.694;7.246;2023-06-14T13:22:55;32.50;16.70
4097;DHT22;2062;50.694;7.246;2023-06-14T13:25:21;32.50;16.70
4097;DHT22;2062;50.694;7.246;2023-06-14T13:27:48;32.40;16.60
4097;DHT22;2062;50.694;7.246;2023-06-14T13:30:16;32.40;16.90
4097;DHT22;2062;50.694;7.246;2023-06-14T13:32:43;32.40;16.90
4097;DHT22;2062;50.694;7.246;2023-06-14T13:35:10;32.40;16.70
4097;DHT22;2062;50.694;7.246;2023-06-14T13:37:37;32.40;17.10
4097;DHT22;2062;50.694;7.246;2023-06-14T13:40:04;32.40;17.10
4097;DHT22;2062;50.694;7.246;2023-06-14T13:42:31;32.40;17.10
4097;DHT22;2062;50.694;7.246;2023-06-14T13:44:58;32.40;17.20
4097;DHT22;2062;50.694;7.246;2023-06-14T13:47:26;32.40;17.30
4097;DHT22;2062;50.694;7.246;2023-06-14T13:49:53;32.40;17.10
4097;DHT22;2062;50.694;7.246;2023-06-14T13:52:20;32.40;17.20
4097;DHT22;2062;50.694;7.246;2023-06-14T13:54:47;32.40;17.00
4097;DHT22;2062;50.694;7.246;2023-06-14T13:57:14;32.30;16.90
4097;DHT22;2062;50.694;7.246;2023-06-14T13:59:41;32.30;16.70
4097;DHT22;2062;50.694;7.246;2023-06-14T14:02:09;32.20;17.00
4097;DHT22;2062;50.694;7.246;2023-06-14T14:04:38;32.20;16.80
4097;DHT22;2062;50.694;7.246;2023-06-14T14:07:06;32.20;16.90
4097;DHT22;2062;50.694;7.246;2023-06-14T14:09:33;32.20;16.90
4097;DHT22;2062;50.694;7.246;2023-06-14T14:12:00;32.20;16.90
4097;DHT22;2062;50.694;7.246;2023-06-14T14:14:27;32.10;16.80
4097;DHT22;2062;50.694;7.246;2023-06-14T14:16:54;32.00;16.90
4097;DHT22;2062;50.694;7.246;2023-06-14T14:19:21;32.00;17.40
4097;DHT22;2062;50.694;7.246;2023-06-14T14:21:49;32.00;17.10
4097;DHT22;2062;50.694;7.246;2023-06-14T14:24:16;32.00;17.10
4097;DHT22;2062;50.694;7.246;2023-06-14T14:26:43;32.00;17.10
4097;DHT22;2062;50.694;7.246;2023-06-14T14:29:12;32.00;16.90
4097;DHT22;2062;50.694;7.246;2023-06-14T14:31:39;31.90;16.50
4097;DHT22;2062;50.694;7.246;2023-06-14T14:34:06;31.90;16.50
4097;DHT22;2062;50.694;7.246;2023-06-14T14:36:33;31.80;16.70
4097;DHT22;2062;50.694;7.246;2023-06-14T14:39:04;31.80;16.80
4097;DHT22;2062;50.694;7.246;2023-06-14T14:41:32;31.80;16.80
4097;DHT22;2062;50.694;7.246;2023-06-14T14:43:59;31.80;17.00
4097;DHT22;2062;50.694;7.246;2023-06-14T14:46:26;31.80;17.00
4097;DHT22;2062;50.694;7.246;2023-06-14T14:48:53;31.80;16.70
4097;DHT22;2062;50.694;7.246;2023-06-14T14:51:20;31.80;16.80
4097;DHT22;2062;50.694;7.246;2023-06-14T14:53:47;31.80;16.70
4097;DHT22;2062;50.694;7.246;2023-06-14T14:56:15;31.80;16.90
4097;DHT22;2062;50.694;7.246;2023-06-14T14:58:42;31.80;16.70
4097;DHT22;2062;50.694;7.246;2023-06-14T15:01:09;31.80;16.90
4097;DHT22;2062;50.694;7.246;2023-06-14T15:03:36;31.80;16.90
4097;DHT22;2062;50.694;7.246;2023-06-14T15:06:03;31.70;17.00
4097;DHT22;2062;50.694;7.246;2023-06-14T15:08:30;31.70;16.60
4097;DHT22;2062;50.694;7.246;2023-06-14T15:10:57;31.70;16.70
4097;DHT22;2062;50.694;7.246;2023-06-14T15:13:25;31.60;16.40
4097;DHT22;2062;50.694;7.246;2023-06-14T15:15:53;31.60;16.50
4097;DHT22;2062;50.694;7.246;2023-06-14T15:18:20;31.50;16.80
4097;DHT22;2062;50.694;7.246;2023-06-14T15:20:49;31.40;16.80
4097;DHT22;2062;50.694;7.246;2023-06-14T15:23:16;31.40;16.70
4097;DHT22;2062;50.694;7.246;2023-06-14T15:25:45;31.40;16.70
4097;DHT22;2062;50.694;7.246;2023-06-14T15:28:12;31.30;16.80
4097;DHT22;2062;50.694;7.246;2023-06-14T15:30:40;31.30;17.00
4097;DHT22;2062;50.694;7.246;2023-06-14T15:33:07;31.30;16.90
4097;DHT22;2062;50.694;7.246;2023-06-14T15:35:34;31.20;16.90
4097;DHT22;2062;50.694;7.246;2023-06-14T15:38:01;31.20;16.70
4097;DHT22;2062;50.694;7.246;2023-06-14T15:40:28;31.10;16.60
4097;DHT22;2062;50.694;7.246;2023-06-14T15:42:55;30.90;16.10
4097;DHT22;2062;50.694;7.246;2023-06-14T15:45:21;30.90;16.30
4097;DHT22;2062;50.694;7.246;2023-06-14T15:47:50;30.80;16.40
4097;DHT22;2062;50.694;7.246;2023-06-14T15:50:16;30.70;16.60
4097;DHT22;2062;50.694;7.246;2023-06-14T15:52:43;30.60;16.90
4097;DHT22;2062;50.694;7.246;2023-06-14T15:55:12;30.50;16.70
4097;DHT22;2062;50.694;7.246;2023-06-14T15:57:39;30.50;16.80
4097;DHT22;2062;50.694;7.246;2023-06-14T16:00:06;30.40;16.70
4097;DHT22;2062;50.694;7.246;2023-06-14T16:02:33;30.30;16.80
4097;DHT22;2062;50.694;7.246;2023-06-14T16:05:01;30.30;16.80
4097;DHT22;2062;50.694;7.246;2023-06-14T16:07:28;30.20;16.80
4097;DHT22;2062;50.694;7.246;2023-06-14T16:09:55;30.10;16.90